Marcus, South Dakota
Current Conditions -  °F | °C
As of 8:58 AM on Monday 26 Jan 2015 (Local Time) from KRCA Reporting Station
Clear Clear  
Wind Chill: 58°   Ceiling: Unl
Heat Index: 58°   Visibility: 10mi
Dew Point: 30°   Wind: 17mph
Humidity: 35%   Direction: 330°NNW
Pressure: 30.03"   Gusts: NA
Location:  44.4145°N, 103.17°W
Report Text: KRCA 261558Z AUTO 33015KT 10SM CLR 14/M01 A3003 RMK AO2 SLP170 T01441009 $
Loading
Personal Weather Stations






























Interactive Weather Map New forecast layout! Learn more

10-Day Weather Forecast

Advertisements
Track Severe Weather on mobile